Aviation Digital Data Service (ADDS)

Output produced by METARs form (0931 UTC 23 July 2019)
found at http://www.aviationweather.gov/metar/data/
 
METAR text: NSFA 230900Z 18004KT 9999 BKN022 24/24 Q1011 RMK NIL
Conditions at: NSFA (FALEOLO INT/APIA, WS) observed 0900 UTC 23 July 2019
Temperature: 24.0°C (75°F)
Dewpoint: 24.0°C (75°F) [RH = 100%]
Pressure (altimeter): 29.85 inches Hg (1011.0 mb)
Winds: from the S (180 degrees) at 5 MPH (4 knots; 2.1 m/s)
Visibility: 6 or more miles (10+ km)
Ceiling: 2200 feet AGL
Clouds: broken clouds at 2200 feet AGL
Weather: no significant weather observed at this time

METAR text: NSFA 230800Z 17006KT 9999 SCT020 BKN045 25/24 Q1011 RMK NIL
Conditions at: NSFA (FALEOLO INT/APIA, WS) observed 0800 UTC 23 July 2019
Temperature: 25.0°C (77°F)
Dewpoint: 24.0°C (75°F) [RH = 94%]
Pressure (altimeter): 29.85 inches Hg (1011.0 mb)
Winds: from the S (170 degrees) at 7 MPH (6 knots; 3.1 m/s)
Visibility: 6 or more miles (10+ km)
Ceiling: 4500 feet AGL
Clouds: scattered clouds at 2000 feet AGL
broken clouds at 4500 feet AGL
Weather: no significant weather observed at this time

METAR text: NSFA 230700Z 15004KT 9999 FEW018CB BKN020 25/24 Q1011 RMK CB TO W
Conditions at: NSFA (FALEOLO INT/APIA, WS) observed 0700 UTC 23 July 2019
Temperature: 25.0°C (77°F)
Dewpoint: 24.0°C (75°F) [RH = 94%]
Pressure (altimeter): 29.85 inches Hg (1011.0 mb)
Winds: from the SSE (150 degrees) at 5 MPH (4 knots; 2.1 m/s)
Visibility: 6 or more miles (10+ km)
Ceiling: 2000 feet AGL
Clouds: few clouds at 1800 feet AGL
broken clouds at 2000 feet AGL
Weather: no significant weather observed at this time

METAR text: NSFA 230600Z 19006KT 9999 FEW019CB SCT020 BKN040 25/24 Q1010 RMK CB TO SW
Conditions at: NSFA (FALEOLO INT/APIA, WS) observed 0600 UTC 23 July 2019
Temperature: 25.0°C (77°F)
Dewpoint: 24.0°C (75°F) [RH = 94%]
Pressure (altimeter): 29.82 inches Hg (1010.0 mb)
Winds: from the S (190 degrees) at 7 MPH (6 knots; 3.1 m/s)
Visibility: 6 or more miles (10+ km)
Ceiling: 4000 feet AGL
Clouds: few clouds at 1900 feet AGL
scattered clouds at 2000 feet AGL
broken clouds at 4000 feet AGL
Weather: no significant weather observed at this time

METAR text: NSFA 230500Z 17005KT 9999 FEW019CB SCT020 BKN140 26/25 Q1010 RMK CB TO NW
Conditions at: NSFA (FALEOLO INT/APIA, WS) observed 0500 UTC 23 July 2019
Temperature: 26.0°C (79°F)
Dewpoint: 25.0°C (77°F) [RH = 94%]
Pressure (altimeter): 29.82 inches Hg (1010.0 mb)
Winds: from the S (170 degrees) at 6 MPH (5 knots; 2.6 m/s)
Visibility: 6 or more miles (10+ km)
Ceiling: 14000 feet AGL
Clouds: few clouds at 1900 feet AGL
scattered clouds at 2000 feet AGL
broken clouds at 14000 feet AGL
Weather: no significant weather observed at this time

METAR text: NSFA 230400Z 16004KT 9999 FEW017CB SCT020 BKN038 26/25 Q1010 RMK CB TO W
Conditions at: NSFA (FALEOLO INT/APIA, WS) observed 0400 UTC 23 July 2019
Temperature: 26.0°C (79°F)
Dewpoint: 25.0°C (77°F) [RH = 94%]
Pressure (altimeter): 29.82 inches Hg (1010.0 mb)
Winds: from the SSE (160 degrees) at 5 MPH (4 knots; 2.1 m/s)
Visibility: 6 or more miles (10+ km)
Ceiling: 3800 feet AGL
Clouds: few clouds at 1700 feet AGL
scattered clouds at 2000 feet AGL
broken clouds at 3800 feet AGL
Weather: no significant weather observed at this time

METAR text: NSFA 230300Z 13003KT 9999 FEW018CB SCT020 BKN040 27/25 Q1009 RMK CB TO WNW
Conditions at: NSFA (FALEOLO INT/APIA, WS) observed 0300 UTC 23 July 2019
Temperature: 27.0°C (81°F)
Dewpoint: 25.0°C (77°F) [RH = 89%]
Pressure (altimeter): 29.79 inches Hg (1009.0 mb)
Winds: from the SE (130 degrees) at 3 MPH (3 knots; 1.5 m/s)
Visibility: 6 or more miles (10+ km)
Ceiling: 4000 feet AGL
Clouds: few clouds at 1800 feet AGL
scattered clouds at 2000 feet AGL
broken clouds at 4000 feet AGL
Weather: no significant weather observed at this time

METAR text: NSFA 230200Z 13003KT 9999 FEW018CB BKN020 29/24 Q1009 RMK CB TO NNW
Conditions at: NSFA (FALEOLO INT/APIA, WS) observed 0200 UTC 23 July 2019
Temperature: 29.0°C (84°F)
Dewpoint: 24.0°C (75°F) [RH = 74%]
Pressure (altimeter): 29.79 inches Hg (1009.0 mb)
Winds: from the SE (130 degrees) at 3 MPH (3 knots; 1.5 m/s)
Visibility: 6 or more miles (10+ km)
Ceiling: 2000 feet AGL
Clouds: few clouds at 1800 feet AGL
broken clouds at 2000 feet AGL
Weather: no significant weather observed at this time

METAR text: NSFA 230100Z 07005KT 9999 FEW020CB SCT023 30/24 Q1009 RMK CB TO N AND W
Conditions at: NSFA (FALEOLO INT/APIA, WS) observed 0100 UTC 23 July 2019
Temperature: 30.0°C (86°F)
Dewpoint: 24.0°C (75°F) [RH = 70%]
Pressure (altimeter): 29.79 inches Hg (1009.0 mb)
Winds: from the ENE (70 degrees) at 6 MPH (5 knots; 2.6 m/s)
Visibility: 6 or more miles (10+ km)
Ceiling: at least 12,000 feet AGL
Clouds: few clouds at 2000 feet AGL
scattered clouds at 2300 feet AGL
Weather: no significant weather observed at this time

METAR text: NSFA 230000Z 14006KT 9999 2000WNW VCSH FEW018CB SCT042 30/26 Q1010 RMK CB TO WNW
Conditions at: NSFA (FALEOLO INT/APIA, WS) observed 0000 UTC 23 July 2019
Temperature: 30.0°C (86°F)
Dewpoint: 26.0°C (79°F) [RH = 79%]
Pressure (altimeter): 29.82 inches Hg (1010.0 mb)
Winds: from the SE (140 degrees) at 7 MPH (6 knots; 3.1 m/s)
Visibility: 6 or more miles (10+ km)
Ceiling: at least 12,000 feet AGL
Clouds: few clouds at 1800 feet AGL
scattered clouds at 4200 feet AGL
Weather: VCSH  (showers in vicinity)

METAR text: NSFA 222300Z 17005KT 9999 FEW020CB SCT026 BKN040 29/26 Q1010 RMK CB TO WNW
Conditions at: NSFA (FALEOLO INT/APIA, WS) observed 2300 UTC 22 July 2019
Temperature: 29.0°C (84°F)
Dewpoint: 26.0°C (79°F) [RH = 84%]
Pressure (altimeter): 29.82 inches Hg (1010.0 mb)
Winds: from the S (170 degrees) at 6 MPH (5 knots; 2.6 m/s)
Visibility: 6 or more miles (10+ km)
Ceiling: 4000 feet AGL
Clouds: few clouds at 2000 feet AGL
scattered clouds at 2600 feet AGL
broken clouds at 4000 feet AGL
Weather: no significant weather observed at this time

METAR text: NSFA 222200Z 35004KT 9999 SCT020 BKN070 30/25 Q1011 RMK NIL
Conditions at: NSFA (FALEOLO INT/APIA, WS) observed 2200 UTC 22 July 2019
Temperature: 30.0°C (86°F)
Dewpoint: 25.0°C (77°F) [RH = 75%]
Pressure (altimeter): 29.85 inches Hg (1011.0 mb)
Winds: from the N (350 degrees) at 5 MPH (4 knots; 2.1 m/s)
Visibility: 6 or more miles (10+ km)
Ceiling: 7000 feet AGL
Clouds: scattered clouds at 2000 feet AGL
broken clouds at 7000 feet AGL
Weather: no significant weather observed at this time

METAR text: NSFA 222100Z 01005KT 9999 FEW020 SCT060 29/25 Q1011 RMK NIL
Conditions at: NSFA (FALEOLO INT/APIA, WS) observed 2100 UTC 22 July 2019
Temperature: 29.0°C (84°F)
Dewpoint: 25.0°C (77°F) [RH = 79%]
Pressure (altimeter): 29.85 inches Hg (1011.0 mb)
Winds: from the N (10 degrees) at 6 MPH (5 knots; 2.6 m/s)
Visibility: 6 or more miles (10+ km)
Ceiling: at least 12,000 feet AGL
Clouds: few clouds at 2000 feet AGL
scattered clouds at 6000 feet AGL
Weather: no significant weather observed at this time

METAR text: NSFA 222000Z 11006KT 9999 SCT025 BKN090 28/24 Q1011 RMK NIL
Conditions at: NSFA (FALEOLO INT/APIA, WS) observed 2000 UTC 22 July 2019
Temperature: 28.0°C (82°F)
Dewpoint: 24.0°C (75°F) [RH = 79%]
Pressure (altimeter): 29.85 inches Hg (1011.0 mb)
Winds: from the ESE (110 degrees) at 7 MPH (6 knots; 3.1 m/s)
Visibility: 6 or more miles (10+ km)
Ceiling: 9000 feet AGL
Clouds: scattered clouds at 2500 feet AGL
broken clouds at 9000 feet AGL
Weather: no significant weather observed at this time

METAR text: NSFA 221900Z 00000KT 9999 FEW020TCU BKN070 26/24 Q1010 RMK TCU TO NW, SW
Conditions at: NSFA (FALEOLO INT/APIA, WS) observed 1900 UTC 22 July 2019
Temperature: 26.0°C (79°F)
Dewpoint: 24.0°C (75°F) [RH = 89%]
Pressure (altimeter): 29.82 inches Hg (1010.0 mb)
Winds: calm
Visibility: 6 or more miles (10+ km)
Ceiling: 7000 feet AGL
Clouds: few clouds at 2000 feet AGL
broken clouds at 7000 feet AGL
Weather: no significant weather observed at this time

METAR text: NSFA 221800Z VRB03KT 9999 FEW020TCU BKN038 24/23 Q1010 RMK TCU TO SW
Conditions at: NSFA (FALEOLO INT/APIA, WS) observed 1800 UTC 22 July 2019
Temperature: 24.0°C (75°F)
Dewpoint: 23.0°C (73°F) [RH = 94%]
Pressure (altimeter): 29.82 inches Hg (1010.0 mb)
Winds: variable direction winds at 3 MPH (3 knots; 1.5 m/s)
Visibility: 6 or more miles (10+ km)
Ceiling: 3800 feet AGL
Clouds: few clouds at 2000 feet AGL
broken clouds at 3800 feet AGL
Weather: no significant weather observed at this time

METAR text: NSFA 221700Z 00000KT 9999 FEW020 BKN052 24/23 Q1009 RMK NIL
Conditions at: NSFA (FALEOLO INT/APIA, WS) observed 1700 UTC 22 July 2019
Temperature: 24.0°C (75°F)
Dewpoint: 23.0°C (73°F) [RH = 94%]
Pressure (altimeter): 29.79 inches Hg (1009.0 mb)
Winds: calm
Visibility: 6 or more miles (10+ km)
Ceiling: 5200 feet AGL
Clouds: few clouds at 2000 feet AGL
broken clouds at 5200 feet AGL
Weather: no significant weather observed at this time

METAR text: NSFA 221600Z 18008KT 140V210 9999 FEW024 BKN040 25/23 Q1009 RMK NIL
Conditions at: NSFA (FALEOLO INT/APIA, WS) observed 1600 UTC 22 July 2019
Temperature: 25.0°C (77°F)
Dewpoint: 23.0°C (73°F) [RH = 89%]
Pressure (altimeter): 29.79 inches Hg (1009.0 mb)
Winds: from the S (180 degrees) at 9 MPH (8 knots; 4.1 m/s)
Visibility: 6 or more miles (10+ km)
Ceiling: 4000 feet AGL
Clouds: few clouds at 2400 feet AGL
broken clouds at 4000 feet AGL
Weather: no significant weather observed at this time

METAR text: NSFA 221500Z 21008KT 180V240 9999 FEW020TCU SCT042 BKN170 25/24 Q1009 RMK TCU TO S AND W
Conditions at: NSFA (FALEOLO INT/APIA, WS) observed 1500 UTC 22 July 2019
Temperature: 25.0°C (77°F)
Dewpoint: 24.0°C (75°F) [RH = 94%]
Pressure (altimeter): 29.79 inches Hg (1009.0 mb)
Winds: from the SSW (210 degrees) at 9 MPH (8 knots; 4.1 m/s)
Visibility: 6 or more miles (10+ km)
Ceiling: 17000 feet AGL
Clouds: few clouds at 2000 feet AGL
scattered clouds at 4200 feet AGL
broken clouds at 17000 feet AGL
Weather: no significant weather observed at this time

METAR text: NSFA 221400Z 00000KT 9999 FEW020CB FEW024 BKN040 25/24 Q1009 RMK CB TO W, SSE
Conditions at: NSFA (FALEOLO INT/APIA, WS) observed 1400 UTC 22 July 2019
Temperature: 25.0°C (77°F)
Dewpoint: 24.0°C (75°F) [RH = 94%]
Pressure (altimeter): 29.79 inches Hg (1009.0 mb)
Winds: calm
Visibility: 6 or more miles (10+ km)
Ceiling: 4000 feet AGL
Clouds: few clouds at 2000 feet AGL
few clouds at 2400 feet AGL
broken clouds at 4000 feet AGL
Weather: no significant weather observed at this time

METAR text: NSFA 221300Z 21005KT 9999 FEW018 FEW022CB SCT045 25/24 Q1009 RMK CB TO W, SSE
Conditions at: NSFA (FALEOLO INT/APIA, WS) observed 1300 UTC 22 July 2019
Temperature: 25.0°C (77°F)
Dewpoint: 24.0°C (75°F) [RH = 94%]
Pressure (altimeter): 29.79 inches Hg (1009.0 mb)
Winds: from the SSW (210 degrees) at 6 MPH (5 knots; 2.6 m/s)
Visibility: 6 or more miles (10+ km)
Ceiling: at least 12,000 feet AGL
Clouds: few clouds at 1800 feet AGL
few clouds at 2200 feet AGL
scattered clouds at 4500 feet AGL
Weather: no significant weather observed at this time

METAR text: NSFA 221200Z 20004KT 9999 FEW024 SCT040 BKN170 25/25 Q1009 RMK NIL
Conditions at: NSFA (FALEOLO INT/APIA, WS) observed 1200 UTC 22 July 2019
Temperature: 25.0°C (77°F)
Dewpoint: 25.0°C (77°F) [RH = 100%]
Pressure (altimeter): 29.79 inches Hg (1009.0 mb)
Winds: from the SSW (200 degrees) at 5 MPH (4 knots; 2.1 m/s)
Visibility: 6 or more miles (10+ km)
Ceiling: 17000 feet AGL
Clouds: few clouds at 2400 feet AGL
scattered clouds at 4000 feet AGL
broken clouds at 17000 feet AGL
Weather: no significant weather observed at this time

METAR text: NSFA 221100Z 17004KT 9999 SCT020 25/24 Q1009 RMK NIL
Conditions at: NSFA (FALEOLO INT/APIA, WS) observed 1100 UTC 22 July 2019
Temperature: 25.0°C (77°F)
Dewpoint: 24.0°C (75°F) [RH = 94%]
Pressure (altimeter): 29.79 inches Hg (1009.0 mb)
Winds: from the S (170 degrees) at 5 MPH (4 knots; 2.1 m/s)
Visibility: 6 or more miles (10+ km)
Ceiling: at least 12,000 feet AGL
Clouds: scattered clouds at 2000 feet AGL
Weather: no significant weather observed at this time

METAR text: NSFA 221000Z 00000KT 9999 FEW024 26/25 Q1009 RMK NOSIG
Conditions at: NSFA (FALEOLO INT/APIA, WS) observed 1000 UTC 22 July 2019
Temperature: 26.0°C (79°F)
Dewpoint: 25.0°C (77°F) [RH = 94%]
Pressure (altimeter): 29.79 inches Hg (1009.0 mb)
Winds: calm
Visibility: 6 or more miles (10+ km)
Ceiling: at least 12,000 feet AGL
Clouds: few clouds at 2400 feet AGL
Weather: no significant weather observed at this time

METAR text: NSFA 220900Z 14003KT 9999 FEW024 25/25 Q1009 RMK NOSIG
Conditions at: NSFA (FALEOLO INT/APIA, WS) observed 0900 UTC 22 July 2019
Temperature: 25.0°C (77°F)
Dewpoint: 25.0°C (77°F) [RH = 100%]
Pressure (altimeter): 29.79 inches Hg (1009.0 mb)
Winds: from the SE (140 degrees) at 3 MPH (3 knots; 1.5 m/s)
Visibility: 6 or more miles (10+ km)
Ceiling: at least 12,000 feet AGL
Clouds: few clouds at 2400 feet AGL
Weather: no significant weather observed at this time

METAR text: NSFA 220800Z 13002KT 9999 FEW023 25/24 Q1009 NOSIG
Conditions at: NSFA (FALEOLO INT/APIA, WS) observed 0800 UTC 22 July 2019
Temperature: 25.0°C (77°F)
Dewpoint: 24.0°C (75°F) [RH = 94%]
Pressure (altimeter): 29.79 inches Hg (1009.0 mb)
Winds: from the SE (130 degrees) at 2 MPH (2 knots; 1.0 m/s)
Visibility: 6 or more miles (10+ km)
Ceiling: at least 12,000 feet AGL
Clouds: few clouds at 2300 feet AGL
Weather: no significant weather observed at this time

METAR text: NSFA 220700Z 15003KT 9999 SCT023 25/24 Q1009 RMK NOSIG
Conditions at: NSFA (FALEOLO INT/APIA, WS) observed 0700 UTC 22 July 2019
Temperature: 25.0°C (77°F)
Dewpoint: 24.0°C (75°F) [RH = 94%]
Pressure (altimeter): 29.79 inches Hg (1009.0 mb)
Winds: from the SSE (150 degrees) at 3 MPH (3 knots; 1.5 m/s)
Visibility: 6 or more miles (10+ km)
Ceiling: at least 12,000 feet AGL
Clouds: scattered clouds at 2300 feet AGL
Weather: no significant weather observed at this time

METAR text: NSFA 220600Z 18003KT 9999 SCT023 26/24 Q1008 RMK NIL
Conditions at: NSFA (FALEOLO INT/APIA, WS) observed 0600 UTC 22 July 2019
Temperature: 26.0°C (79°F)
Dewpoint: 24.0°C (75°F) [RH = 89%]
Pressure (altimeter): 29.76 inches Hg (1008.0 mb)
Winds: from the S (180 degrees) at 3 MPH (3 knots; 1.5 m/s)
Visibility: 6 or more miles (10+ km)
Ceiling: at least 12,000 feet AGL
Clouds: scattered clouds at 2300 feet AGL
Weather: no significant weather observed at this time

METAR text: NSFA 220500Z 30004KT 9999 SCT022 29/24 Q1008 RMK NIL
Conditions at: NSFA (FALEOLO INT/APIA, WS) observed 0500 UTC 22 July 2019
Temperature: 29.0°C (84°F)
Dewpoint: 24.0°C (75°F) [RH = 74%]
Pressure (altimeter): 29.76 inches Hg (1008.0 mb)
Winds: from the WNW (300 degrees) at 5 MPH (4 knots; 2.1 m/s)
Visibility: 6 or more miles (10+ km)
Ceiling: at least 12,000 feet AGL
Clouds: scattered clouds at 2200 feet AGL
Weather: no significant weather observed at this time

METAR text: NSFA 220400Z 31002KT 9999 SCT022 30/23 Q1007 RMK NIL
Conditions at: NSFA (FALEOLO INT/APIA, WS) observed 0400 UTC 22 July 2019
Temperature: 30.0°C (86°F)
Dewpoint: 23.0°C (73°F) [RH = 66%]
Pressure (altimeter): 29.73 inches Hg (1007.0 mb)
Winds: from the NW (310 degrees) at 2 MPH (2 knots; 1.0 m/s)
Visibility: 6 or more miles (10+ km)
Ceiling: at least 12,000 feet AGL
Clouds: scattered clouds at 2200 feet AGL
Weather: no significant weather observed at this time

METAR text: NSFA 220300Z 30003KT 9999 FEW020CB SCT023 30/23 Q1007 RMK CB TO WNW
Conditions at: NSFA (FALEOLO INT/APIA, WS) observed 0300 UTC 22 July 2019
Temperature: 30.0°C (86°F)
Dewpoint: 23.0°C (73°F) [RH = 66%]
Pressure (altimeter): 29.73 inches Hg (1007.0 mb)
Winds: from the WNW (300 degrees) at 3 MPH (3 knots; 1.5 m/s)
Visibility: 6 or more miles (10+ km)
Ceiling: at least 12,000 feet AGL
Clouds: few clouds at 2000 feet AGL
scattered clouds at 2300 feet AGL
Weather: no significant weather observed at this time

METAR text: NSFA 220200Z 35005KT 9999 SCT023 32/23 Q1007 RMK NIL
Conditions at: NSFA (FALEOLO INT/APIA, WS) observed 0200 UTC 22 July 2019
Temperature: 32.0°C (90°F)
Dewpoint: 23.0°C (73°F) [RH = 59%]
Pressure (altimeter): 29.73 inches Hg (1007.0 mb)
Winds: from the N (350 degrees) at 6 MPH (5 knots; 2.6 m/s)
Visibility: 6 or more miles (10+ km)
Ceiling: at least 12,000 feet AGL
Clouds: scattered clouds at 2300 feet AGL
Weather: no significant weather observed at this time

METAR text: NSFA 220100Z 01006KT 9999 SCT023 31/23 Q1008 RMK NIL
Conditions at: NSFA (FALEOLO INT/APIA, WS) observed 0100 UTC 22 July 2019
Temperature: 31.0°C (88°F)
Dewpoint: 23.0°C (73°F) [RH = 63%]
Pressure (altimeter): 29.76 inches Hg (1008.0 mb)
Winds: from the N (10 degrees) at 7 MPH (6 knots; 3.1 m/s)
Visibility: 6 or more miles (10+ km)
Ceiling: at least 12,000 feet AGL
Clouds: scattered clouds at 2300 feet AGL
Weather: no significant weather observed at this time

METAR text: NSFA 220000Z 02006KT 9999 SCT023 32/25 Q1009 RMK NIL
Conditions at: NSFA (FALEOLO INT/APIA, WS) observed 0000 UTC 22 July 2019
Temperature: 32.0°C (90°F)
Dewpoint: 25.0°C (77°F) [RH = 67%]
Pressure (altimeter): 29.79 inches Hg (1009.0 mb)
Winds: from the NNE (20 degrees) at 7 MPH (6 knots; 3.1 m/s)
Visibility: 6 or more miles (10+ km)
Ceiling: at least 12,000 feet AGL
Clouds: scattered clouds at 2300 feet AGL
Weather: no significant weather observed at this time

METAR text: NSFA 212300Z 03007KT 330V060 9999 BKN024 31/25 Q1009 RMK NIL
Conditions at: NSFA (FALEOLO INT/APIA, WS) observed 2300 UTC 21 July 2019
Temperature: 31.0°C (88°F)
Dewpoint: 25.0°C (77°F) [RH = 71%]
Pressure (altimeter): 29.79 inches Hg (1009.0 mb)
Winds: from the NNE (30 degrees) at 8 MPH (7 knots; 3.6 m/s)
Visibility: 6 or more miles (10+ km)
Ceiling: 2400 feet AGL
Clouds: broken clouds at 2400 feet AGL
Weather: no significant weather observed at this time

METAR text: NSFA 212200Z 01008KT 360V150 9999 BKN026 30/25 Q1010 RMK NIL
Conditions at: NSFA (FALEOLO INT/APIA, WS) observed 2200 UTC 21 July 2019
Temperature: 30.0°C (86°F)
Dewpoint: 25.0°C (77°F) [RH = 75%]
Pressure (altimeter): 29.82 inches Hg (1010.0 mb)
Winds: from the N (10 degrees) at 9 MPH (8 knots; 4.1 m/s)
Visibility: 6 or more miles (10+ km)
Ceiling: 2600 feet AGL
Clouds: broken clouds at 2600 feet AGL
Weather: no significant weather observed at this time

Forecast for: NSFA (FALEOLO INT/APIA, WS)
Text: TAF NSFA 230520Z 2306/2406 17008KT 9999 -SHRA SCT020 BKN040
Forecast period: 0600 UTC 23 July 2019 to 0600 UTC 24 July 2019
Forecast type: FROM: standard forecast or significant change
Winds: from the S (170 degrees) at 9 MPH (8 knots; 4.1 m/s)
Visibility: 6 or more miles 10+ km)
Ceiling: 4000 feet AGL
Clouds: scattered clouds at 2000 feet AGL
broken clouds at 4000 feet AGL
Weather: -SHRA  (light rain showers)
Text: PROB30
Forecast period: 0600 to 1200 UTC 23 July 2019
Forecast type: TEMPORARY: The following changes expected for less than half the time period
Visibility: 3 miles (5 km)
Ceiling: at least 12,000 feet AGL
Clouds: few clouds at 1800 feet AGL
Weather: TSRA  (rain associated with thunderstorm(s))